createdAt,value
2019-05-03T00:00:35.261Z,99636.36
2019-05-03T00:02:21.718Z,99641.47
2019-05-03T00:03:26.326Z,99639.83
2019-05-03T00:04:31.609Z,99634.45
2019-05-03T00:05:37.887Z,99635.02
2019-05-03T00:06:42.704Z,99641.69
2019-05-03T00:07:48.881Z,99636.94
2019-05-03T00:08:53.386Z,99635.40
2019-05-03T00:09:58.094Z,99638.91
2019-05-03T00:11:04.142Z,99638.48
2019-05-03T00:12:08.654Z,99637.17
2019-05-03T00:13:13.076Z,99644.08
2019-05-03T00:14:18.050Z,99646.77
2019-05-03T00:15:24.567Z,99648.94
2019-05-03T00:16:36.334Z,99644.20
2019-05-03T00:17:41.979Z,99643.87
2019-05-03T00:18:47.752Z,99649.13
2019-05-03T00:19:52.776Z,99654.47
2019-05-03T00:20:57.259Z,99655.02
2019-05-03T00:22:02.100Z,99643.28
2019-05-03T00:23:06.894Z,99646.00
2019-05-03T00:24:11.882Z,99642.95
2019-05-03T00:25:16.391Z,99649.11
2019-05-03T00:26:22.568Z,99649.56
2019-05-03T00:27:27.113Z,99652.34
2019-05-03T00:28:32.208Z,99650.16
2019-05-03T00:29:36.723Z,99651.21
2019-05-03T00:30:42.354Z,99652.13
2019-05-03T00:31:46.840Z,99652.62
2019-05-03T00:32:52.147Z,99647.81
2019-05-03T00:33:59.310Z,99652.73
2019-05-03T00:35:06.048Z,99653.80
2019-05-03T00:36:15.107Z,99653.80
2019-05-03T00:37:32.638Z,99659.09
2019-05-03T00:38:36.614Z,99658.31
2019-05-03T00:39:55.762Z,99660.59
2019-05-03T00:41:01.850Z,99664.14
2019-05-03T00:42:06.596Z,99660.22
2019-05-03T00:43:11.610Z,99660.80
2019-05-03T00:44:16.040Z,99659.55
2019-05-03T00:45:22.098Z,99663.42
2019-05-03T00:46:26.563Z,99661.23
2019-05-03T00:47:32.824Z,99665.26
2019-05-03T00:48:37.400Z,99666.57
2019-05-03T00:49:42.609Z,99667.92
2019-05-03T00:50:47.136Z,99673.55
2019-05-03T00:51:51.761Z,99668.36
2019-05-03T00:52:56.466Z,99672.38
2019-05-03T00:54:02.065Z,99677.62
2019-05-03T00:55:16.068Z,99676.83
2019-05-03T00:56:13.748Z,99675.63
2019-05-03T00:57:18.176Z,99678.72
2019-05-03T00:58:22.626Z,99681.33
2019-05-03T00:59:27.050Z,99678.34
2019-05-03T01:00:32.627Z,99672.71
2019-05-03T01:01:37.051Z,99684.05
2019-05-03T01:02:42.354Z,99680.95
2019-05-03T01:03:46.897Z,99682.66
2019-05-03T01:04:51.819Z,99678.77
2019-05-03T01:05:57.310Z,99683.57
2019-05-03T01:07:02.303Z,99690.94
2019-05-03T01:08:06.733Z,99689.53
2019-05-03T01:09:15.556Z,99686.34
2019-05-03T01:10:22.416Z,99688.87
2019-05-03T01:11:26.448Z,99690.70
2019-05-03T01:12:32.355Z,99691.57
2019-05-03T01:13:37.007Z,99686.72
2019-05-03T01:14:42.506Z,99689.25
2019-05-03T01:15:51.864Z,99683.05
2019-05-03T01:16:55.947Z,99688.33
2019-05-03T01:18:02.010Z,99689.59
2019-05-03T01:19:06.454Z,99690.02
2019-05-03T01:20:11.985Z,99688.81
2019-05-03T01:21:16.417Z,99690.51
2019-05-03T01:22:22.590Z,99689.64
2019-05-03T01:23:27.480Z,99694.44
2019-05-03T01:24:32.367Z,99696.97
2019-05-03T01:25:37.893Z,99695.16
2019-05-03T01:26:42.319Z,99699.48
2019-05-03T01:27:46.756Z,99693.12
2019-05-03T01:28:52.143Z,99693.04
2019-05-03T01:29:56.952Z,99693.95
2019-05-03T01:31:02.513Z,99693.56
2019-05-03T01:32:07.146Z,99703.30
2019-05-03T01:33:12.129Z,99698.94
2019-05-03T01:34:17.065Z,99704.17
2019-05-03T01:35:21.942Z,99704.22
2019-05-03T01:36:27.862Z,99699.17
2019-05-03T01:37:32.296Z,99711.69
2019-05-03T01:38:37.044Z,99698.64
2019-05-03T01:39:42.164Z,99710.46
2019-05-03T01:40:47.695Z,99709.69
2019-05-03T01:41:52.150Z,99707.55
2019-05-03T01:42:56.575Z,99713.18
2019-05-03T01:44:01.926Z,99712.34
2019-05-03T01:45:07.598Z,99718.05
2019-05-03T01:46:12.094Z,99714.87
2019-05-03T01:47:18.188Z,99720.11
2019-05-03T01:48:27.231Z,99725.38
2019-05-03T01:49:36.006Z,99718.41
2019-05-03T01:50:44.486Z,99721.89
2019-05-03T01:51:53.224Z,99725.03
2019-05-03T01:52:59.299Z,99723.69
2019-05-03T01:54:03.809Z,99722.81
2019-05-03T01:55:13.822Z,99725.00
2019-05-03T01:56:15.847Z,99723.77
2019-05-03T01:57:21.948Z,99724.13
2019-05-03T01:58:26.590Z,99728.13
2019-05-03T01:59:32.060Z,99726.92
2019-05-03T02:00:36.650Z,99728.05
2019-05-03T02:01:45.693Z,99732.45
2019-05-03T02:03:01.676Z,99734.37
2019-05-03T02:04:12.246Z,99733.94
2019-05-03T02:05:18.722Z,99737.50
2019-05-03T02:06:23.173Z,99736.08
2019-05-03T02:07:27.587Z,99744.53
2019-05-03T02:08:32.689Z,99744.13
2019-05-03T02:09:37.260Z,99742.00
2019-05-03T02:10:43.639Z,99745.17
2019-05-03T02:11:48.144Z,99745.65
2019-05-03T02:12:52.587Z,99747.03
2019-05-03T02:13:57.015Z,99745.34
2019-05-03T02:15:02.622Z,99742.48
2019-05-03T02:16:07.010Z,99749.97
2019-05-03T02:17:12.565Z,99749.06
2019-05-03T02:18:17.974Z,99746.56
2019-05-03T02:19:22.738Z,99746.61
2019-05-03T02:20:27.445Z,99752.30
2019-05-03T02:21:32.242Z,99753.25
2019-05-03T02:22:36.673Z,99754.56
2019-05-03T02:23:42.527Z,99758.44
2019-05-03T02:24:47.150Z,99754.23
2019-05-03T02:25:58.366Z,99767.77
2019-05-03T02:26:58.119Z,99760.38
2019-05-03T02:28:02.844Z,99761.39
2019-05-03T02:29:07.275Z,99760.98
2019-05-03T02:30:14.480Z,99762.33
2019-05-03T02:31:19.048Z,99763.74
2019-05-03T02:32:23.469Z,99769.03
2019-05-03T02:33:28.871Z,99770.01
2019-05-03T02:34:33.309Z,99769.20
2019-05-03T02:35:37.756Z,99771.84
2019-05-03T02:36:42.895Z,99765.69
2019-05-03T02:37:49.029Z,99769.23
2019-05-03T02:38:53.812Z,99767.56
2019-05-03T02:39:58.213Z,99765.08
2019-05-03T02:41:03.119Z,99767.19
2019-05-03T02:42:11.365Z,99767.19
2019-05-03T02:43:16.556Z,99766.39
2019-05-03T02:44:22.208Z,99765.58
2019-05-03T02:45:28.302Z,99767.82
2019-05-03T02:46:52.218Z,99779.16
2019-05-03T02:48:01.116Z,99772.64
2019-05-03T02:49:07.203Z,99776.21
2019-05-03T02:50:16.441Z,99771.45
2019-05-03T02:51:19.571Z,99774.50
2019-05-03T02:52:37.026Z,99775.87
2019-05-03T02:53:41.912Z,99774.53
2019-05-03T02:54:46.601Z,99778.01
2019-05-03T02:55:52.038Z,99776.73
2019-05-03T02:56:56.531Z,99778.94
2019-05-03T02:58:00.965Z,99781.14
2019-05-03T02:59:06.227Z,99781.58
2019-05-03T03:00:16.394Z,99777.69
2019-05-03T03:01:20.752Z,99782.08
2019-05-03T03:02:26.428Z,99777.34
2019-05-03T03:03:32.410Z,99779.09
2019-05-03T03:04:36.823Z,99777.45
2019-05-03T03:05:41.609Z,99777.34
2019-05-03T03:06:47.471Z,99785.20
2019-05-03T03:07:55.687Z,99787.34
2019-05-03T03:08:59.327Z,99785.66
2019-05-03T03:10:06.398Z,99792.65
2019-05-03T03:11:10.923Z,99790.06
2019-05-03T03:12:16.089Z,99787.45
2019-05-03T03:13:25.164Z,99790.06
2019-05-03T03:14:30.806Z,99792.73
2019-05-03T03:15:38.622Z,99789.28
2019-05-03T03:16:45.598Z,99789.28
2019-05-03T03:17:55.801Z,99798.81
2019-05-03T03:19:02.338Z,99797.11
2019-05-03T03:20:08.378Z,99796.27
2019-05-03T03:21:16.274Z,99802.76
2019-05-03T03:22:25.926Z,99802.34
2019-05-03T03:23:35.503Z,99799.73
2019-05-03T03:24:45.539Z,99802.34
2019-05-03T03:25:51.534Z,99802.78
2019-05-03T03:26:58.800Z,99801.52
2019-05-03T03:28:05.334Z,99799.81
2019-05-03T03:29:12.497Z,99802.83
2019-05-03T03:30:37.893Z,99810.24
2019-05-03T03:32:09.970Z,99805.52
2019-05-03T03:33:17.523Z,99813.79
2019-05-03T03:34:27.868Z,99814.23
2019-05-03T03:35:31.988Z,99811.16
2019-05-03T03:36:59.604Z,99815.53
2019-05-03T03:37:56.024Z,99816.45
2019-05-03T03:39:01.403Z,99816.47
2019-05-03T03:40:07.945Z,99813.84
2019-05-03T03:41:16.299Z,99818.22
2019-05-03T03:42:22.006Z,99818.16
2019-05-03T03:43:27.667Z,99823.38
2019-05-03T03:44:32.656Z,99816.04
2019-05-03T03:45:38.751Z,99820.83
2019-05-03T03:46:45.528Z,99822.59
2019-05-03T03:47:56.177Z,99820.84
2019-05-03T03:49:01.157Z,99820.83
2019-05-03T03:50:07.203Z,99819.98
2019-05-03T03:51:15.537Z,99823.36
2019-05-03T03:52:21.869Z,99819.81
2019-05-03T03:53:26.769Z,99827.63
2019-05-03T03:54:35.524Z,99820.97
2019-05-03T03:55:42.478Z,99827.55
2019-05-03T03:56:59.378Z,99822.85
2019-05-03T03:57:58.875Z,99822.90
2019-05-03T03:59:05.732Z,99824.66
2019-05-03T04:00:10.899Z,99829.44
2019-05-03T04:01:15.787Z,99832.10
2019-05-03T04:02:20.700Z,99825.58
2019-05-03T04:03:25.942Z,99828.98
2019-05-03T04:04:31.184Z,99837.25
2019-05-03T04:05:36.078Z,99834.17
2019-05-03T04:06:41.943Z,99834.64
2019-05-03T04:07:46.636Z,99835.50
2019-05-03T04:08:51.375Z,99835.09
2019-05-03T04:09:56.443Z,99835.48
2019-05-03T04:11:01.021Z,99831.19
2019-05-03T04:12:06.134Z,99831.16
2019-05-03T04:13:12.546Z,99837.23
2019-05-03T04:14:30.843Z,99847.20
2019-05-03T04:15:45.277Z,99841.14
2019-05-03T04:16:51.639Z,99846.71
2019-05-03T04:18:05.604Z,99842.39
2019-05-03T04:19:17.144Z,99852.88
2019-05-03T04:20:22.102Z,99849.78
2019-05-03T04:21:27.656Z,99840.70
2019-05-03T04:22:32.092Z,99849.34
2019-05-03T04:23:36.563Z,99855.38
2019-05-03T04:24:40.997Z,99861.03
2019-05-03T04:25:45.454Z,99862.78
2019-05-03T04:26:51.518Z,99861.49
2019-05-03T04:27:56.245Z,99863.69
2019-05-03T04:29:01.174Z,99870.16
2019-05-03T04:30:06.934Z,99869.72
2019-05-03T04:31:11.369Z,99866.70
2019-05-03T04:32:15.958Z,99871.44
2019-05-03T04:33:20.468Z,99870.49
2019-05-03T04:34:26.338Z,99870.84
2019-05-03T04:35:30.883Z,99877.83
2019-05-03T04:36:35.856Z,99873.45
2019-05-03T04:37:40.316Z,99874.33
2019-05-03T04:38:45.303Z,99874.30
2019-05-03T04:39:49.974Z,99873.47
2019-05-03T04:40:56.136Z,99869.47
2019-05-03T04:42:00.943Z,99874.74
2019-05-03T04:43:06.285Z,99876.07
2019-05-03T04:44:11.694Z,99873.84
2019-05-03T04:45:16.720Z,99873.41
2019-05-03T04:46:25.807Z,99874.25
2019-05-03T04:47:30.274Z,99878.63
2019-05-03T04:48:35.804Z,99883.86
2019-05-03T04:49:41.722Z,99886.45
2019-05-03T04:50:46.655Z,99884.74
2019-05-03T04:51:51.277Z,99886.84
2019-05-03T04:52:56.731Z,99890.40
2019-05-03T04:54:20.106Z,99890.42
2019-05-03T04:55:26.708Z,99889.55
2019-05-03T04:56:31.699Z,99885.20
2019-05-03T04:57:44.911Z,99893.92
2019-05-03T04:58:45.875Z,99900.02
2019-05-03T04:59:50.157Z,99899.12
2019-05-03T05:00:55.444Z,99899.50
2019-05-03T05:02:00.154Z,99895.64
2019-05-03T05:03:05.845Z,99891.72
2019-05-03T05:04:11.476Z,99906.92
2019-05-03T05:05:16.932Z,99898.33
2019-05-03T05:06:21.705Z,99897.88
2019-05-03T05:07:26.791Z,99907.00
2019-05-03T05:08:32.742Z,99912.60
2019-05-03T05:09:37.763Z,99908.28
2019-05-03T05:10:45.219Z,99905.95
2019-05-03T05:11:49.659Z,99909.84
2019-05-03T05:12:55.096Z,99909.97
2019-05-03T05:13:59.968Z,99906.44
2019-05-03T05:15:07.022Z,99902.58
2019-05-03T05:16:12.230Z,99904.30
2019-05-03T05:17:18.872Z,99913.89
2019-05-03T05:18:26.322Z,99915.17
2019-05-03T05:19:50.129Z,99916.39
2019-05-03T05:20:56.358Z,99916.38
2019-05-03T05:22:03.965Z,99920.08
2019-05-03T05:23:09.008Z,99918.30
2019-05-03T05:24:15.156Z,99915.08
2019-05-03T05:26:49.941Z,99921.17
2019-05-03T05:28:12.561Z,99922.19
2019-05-03T05:29:19.146Z,99915.86
2019-05-03T05:30:25.228Z,99927.19
2019-05-03T05:31:30.564Z,99922.14
2019-05-03T05:32:35.110Z,99920.33
2019-05-03T05:33:39.785Z,99920.18
2019-05-03T05:34:45.940Z,99923.29
2019-05-03T05:35:51.204Z,99922.83
2019-05-03T05:36:55.630Z,99924.56
2019-05-03T05:38:00.081Z,99926.25
2019-05-03T05:39:06.143Z,99937.48
2019-05-03T05:40:11.236Z,99926.92
2019-05-03T05:41:15.778Z,99918.48
2019-05-03T05:42:20.179Z,99932.73
2019-05-03T05:43:25.491Z,99920.92
2019-05-03T05:44:31.332Z,99930.01
2019-05-03T05:45:35.759Z,99931.55
2019-05-03T05:46:41.834Z,99925.22
2019-05-03T05:48:05.160Z,99927.84
2019-05-03T05:49:12.350Z,99925.62
2019-05-03T05:50:18.736Z,99929.35
2019-05-03T05:51:24.814Z,99934.63
2019-05-03T05:52:29.778Z,99926.22
2019-05-03T05:53:35.864Z,99938.05
2019-05-03T05:54:42.092Z,99932.04
2019-05-03T05:56:05.016Z,99935.53
2019-05-03T05:57:21.513Z,99937.54
2019-05-03T05:58:27.583Z,99939.30
2019-05-03T05:59:45.914Z,99944.34
2019-05-03T06:00:55.252Z,99937.92
2019-05-03T06:02:02.291Z,99937.92
2019-05-03T06:03:06.718Z,99939.23
2019-05-03T06:04:11.189Z,99944.98
2019-05-03T06:05:15.651Z,99946.41
2019-05-03T06:06:27.696Z,99943.32
2019-05-03T06:07:39.393Z,99943.48
2019-05-03T06:08:48.143Z,99940.66
2019-05-03T06:10:05.146Z,99943.44
2019-05-03T06:11:14.873Z,99940.46
2019-05-03T06:12:36.306Z,99951.02
2019-05-03T06:13:44.664Z,99946.88
2019-05-03T06:14:54.441Z,99942.56
2019-05-03T06:16:00.577Z,99950.72
2019-05-03T06:17:06.730Z,99951.08
2019-05-03T06:18:22.377Z,99951.73
2019-05-03T06:19:37.182Z,99956.17
2019-05-03T06:20:45.174Z,99955.00
2019-05-03T06:21:57.024Z,99960.28
2019-05-03T06:23:03.100Z,99952.20
2019-05-03T06:24:11.132Z,99959.15
2019-05-03T06:25:17.217Z,99959.45
2019-05-03T06:26:38.702Z,99954.17
2019-05-03T06:27:42.712Z,99958.92
2019-05-03T06:28:47.068Z,99965.83
2019-05-03T06:29:54.510Z,99962.77
2019-05-03T06:31:09.484Z,99967.45
2019-05-03T06:32:18.247Z,99959.71
2019-05-03T06:33:24.480Z,99965.59
2019-05-03T06:34:29.060Z,99965.28
2019-05-03T06:35:34.563Z,99964.17
2019-05-03T06:36:39.987Z,99970.59
2019-05-03T06:37:47.335Z,99970.32
2019-05-03T06:38:51.763Z,99954.37
2019-05-03T06:39:56.202Z,99966.96
2019-05-03T06:41:00.653Z,99967.84
2019-05-03T06:42:05.306Z,99965.00
2019-05-03T06:43:12.913Z,99963.30
2019-05-03T06:44:19.265Z,99963.14
2019-05-03T06:45:22.032Z,99967.14
2019-05-03T06:46:46.085Z,99957.85
2019-05-03T06:47:50.724Z,99976.17
2019-05-03T06:48:55.173Z,99968.55
2019-05-03T06:49:59.616Z,99973.89
2019-05-03T06:51:10.447Z,99969.52
2019-05-03T06:52:11.291Z,99970.05
2019-05-03T06:53:15.721Z,99977.39
2019-05-03T06:54:26.904Z,99969.02
2019-05-03T06:55:26.284Z,99963.91
2019-05-03T06:56:30.735Z,99964.85
2019-05-03T06:57:40.032Z,99966.89
2019-05-03T06:58:42.280Z,99973.59
2019-05-03T06:59:50.757Z,99973.59
2019-05-03T07:00:57.106Z,99975.69
2019-05-03T07:02:05.606Z,99976.45
2019-05-03T07:03:11.819Z,99983.89
2019-05-03T07:04:17.889Z,99983.49
2019-05-03T07:07:08.101Z,99974.86
2019-05-03T07:08:15.241Z,99978.78
2019-05-03T07:09:21.442Z,99984.47
2019-05-03T07:10:27.516Z,99984.67
2019-05-03T07:11:31.968Z,99979.72
2019-05-03T07:12:40.757Z,99983.80
2019-05-03T07:13:45.259Z,99980.83
2019-05-03T07:14:50.495Z,99984.81
2019-05-03T07:15:56.032Z,99984.86
2019-05-03T07:17:01.176Z,99987.99
2019-05-03T07:18:05.972Z,99983.17
2019-05-03T07:19:10.416Z,99981.77
2019-05-03T07:20:14.928Z,99977.60
2019-05-03T07:21:19.363Z,99976.28
2019-05-03T07:22:24.450Z,99979.69
2019-05-03T07:23:29.024Z,99970.54
2019-05-03T07:24:38.777Z,99973.95
2019-05-03T07:25:39.601Z,99979.30
2019-05-03T07:26:44.810Z,99949.12
2019-05-03T07:27:49.479Z,99970.00
2019-05-03T07:28:54.599Z,99970.00
2019-05-03T07:29:59.244Z,99974.14
2019-05-03T07:31:04.803Z,99985.33
2019-05-03T07:32:09.459Z,99982.77
2019-05-03T07:33:15.842Z,99983.31
2019-05-03T07:34:20.276Z,99983.85
2019-05-03T07:35:25.251Z,99983.36
2019-05-03T07:36:29.729Z,99964.17
2019-05-03T07:37:34.877Z,99985.05
2019-05-03T07:38:39.721Z,99980.28
2019-05-03T07:39:45.279Z,99985.80
2019-05-03T07:40:49.765Z,99991.53
2019-05-03T07:41:55.119Z,99980.60
2019-05-03T07:42:59.714Z,99963.54
2019-05-03T07:44:05.372Z,99982.88
2019-05-03T07:45:10.176Z,99976.53
2019-05-03T07:46:14.842Z,99974.20
2019-05-03T07:47:19.323Z,99970.16
2019-05-03T07:48:25.520Z,99970.16
2019-05-03T07:49:29.917Z,99976.85
2019-05-03T07:50:35.737Z,99964.83
2019-05-03T07:51:41.332Z,99976.70
2019-05-03T07:52:45.773Z,99959.09
2019-05-03T07:53:50.229Z,99963.12
2019-05-03T07:54:55.204Z,99954.14
2019-05-03T07:56:01.321Z,99954.14
2019-05-03T07:57:07.395Z,99966.58
2019-05-03T07:58:15.006Z,99966.58
2019-05-03T07:59:19.499Z,99963.80
2019-05-03T08:00:25.713Z,99979.94
2019-05-03T08:01:31.783Z,99979.94
2019-05-03T08:02:36.286Z,99957.16
2019-05-03T08:03:40.752Z,99979.94
2019-05-03T08:04:45.822Z,99987.27
2019-05-03T08:05:50.279Z,99980.14
2019-05-03T08:06:54.998Z,99983.17
2019-05-03T08:07:59.480Z,99980.88
2019-05-03T08:09:06.985Z,99978.84
2019-05-03T08:10:15.323Z,99985.77
2019-05-03T08:11:19.794Z,99977.34
2019-05-03T08:12:24.754Z,99979.00
2019-05-03T08:13:29.650Z,99979.00
2019-05-03T08:14:35.673Z,99980.96
2019-05-03T08:15:40.303Z,99969.64
2019-05-03T08:16:45.607Z,99974.84
2019-05-03T08:17:50.257Z,99975.82
2019-05-03T08:18:55.857Z,99963.45
2019-05-03T08:20:00.712Z,99973.89
2019-05-03T08:21:05.788Z,99976.35
2019-05-03T08:22:10.446Z,99984.30
2019-05-03T08:23:26.215Z,99984.30
2019-05-03T08:24:22.021Z,99969.66
2019-05-03T08:25:26.837Z,99980.30
2019-05-03T08:26:31.268Z,99980.92
2019-05-03T08:27:35.702Z,99982.94
2019-05-03T08:28:40.153Z,99983.17
2019-05-03T08:29:45.361Z,99977.09
2019-05-03T08:31:04.784Z,99973.17
2019-05-03T08:32:27.748Z,99979.61
2019-05-03T08:33:45.671Z,99970.81
2019-05-03T08:34:52.732Z,99980.92
2019-05-03T08:35:57.181Z,99976.74
2019-05-03T08:37:05.013Z,99984.00
2019-05-03T08:38:09.729Z,99986.73
2019-05-03T08:39:15.839Z,99987.20
2019-05-03T08:40:21.476Z,99988.86
2019-05-03T08:41:30.595Z,99989.47
2019-05-03T08:42:35.997Z,99985.55
2019-05-03T08:43:40.745Z,99981.29
2019-05-03T08:44:45.395Z,99983.08
2019-05-03T08:45:50.112Z,99980.84
2019-05-03T08:46:56.408Z,99984.47
2019-05-03T08:48:01.905Z,99981.23
2019-05-03T08:49:06.370Z,99978.81
2019-05-03T08:50:10.946Z,99971.16
2019-05-03T08:51:15.750Z,99982.01
2019-05-03T08:52:20.186Z,99968.88
2019-05-03T08:53:25.704Z,99971.94
2019-05-03T08:54:31.235Z,99970.20
2019-05-03T08:55:35.680Z,99967.14
2019-05-03T08:56:40.116Z,99968.47
2019-05-03T08:57:44.900Z,99972.19
2019-05-03T08:58:49.462Z,99967.89
2019-05-03T08:59:54.939Z,99966.69
2019-05-03T09:00:59.727Z,99960.33
2019-05-03T09:02:14.022Z,99964.39
2019-05-03T09:03:10.750Z,99974.55
2019-05-03T09:04:15.510Z,99975.39
2019-05-03T09:05:20.147Z,99972.59
2019-05-03T09:06:24.862Z,99966.14
2019-05-03T09:07:29.392Z,99971.91
2019-05-03T09:08:35.381Z,99963.55
2019-05-03T09:09:41.685Z,99970.15
2019-05-03T09:10:59.356Z,99978.17
2019-05-03T09:12:04.775Z,99977.47
2019-05-03T09:13:20.037Z,99982.94
2019-05-03T09:14:28.660Z,99981.48
2019-05-03T09:15:30.632Z,99979.58
2019-05-03T09:16:35.560Z,99975.58
2019-05-03T09:17:40.079Z,99973.86
2019-05-03T09:18:45.411Z,99990.75
2019-05-03T09:19:50.032Z,99981.05
2019-05-03T09:20:55.463Z,99964.78
2019-05-03T09:22:00.094Z,99965.94
2019-05-03T09:23:05.471Z,99973.15
2019-05-03T09:24:09.988Z,99976.73
2019-05-03T09:25:15.602Z,99984.15
2019-05-03T09:26:20.391Z,99980.77
2019-05-03T09:27:24.877Z,99982.64
2019-05-03T09:28:29.402Z,99971.16
2019-05-03T09:29:43.196Z,99973.17
2019-05-03T09:30:40.987Z,99968.36
2019-05-03T09:31:45.421Z,99976.52
2019-05-03T09:32:49.884Z,99977.17
2019-05-03T09:33:54.967Z,99984.18
2019-05-03T09:34:59.772Z,99984.45
2019-05-03T09:36:05.381Z,99976.78
2019-05-03T09:37:09.907Z,99968.77
2019-05-03T09:38:15.050Z,99976.56
2019-05-03T09:39:19.552Z,99982.94
2019-05-03T09:40:24.631Z,99981.39
2019-05-03T09:41:29.487Z,99977.77
2019-05-03T09:42:35.212Z,99974.91
2019-05-03T09:43:39.739Z,99983.50
2019-05-03T09:44:45.069Z,99981.20
2019-05-03T09:45:49.607Z,99988.31
2019-05-03T09:46:54.961Z,99984.20
2019-05-03T09:48:00.624Z,99985.95
2019-05-03T09:49:13.363Z,99985.19
2019-05-03T09:50:12.043Z,99981.00
2019-05-03T09:51:16.779Z,99977.73
2019-05-03T09:52:21.213Z,99983.30
2019-05-03T09:53:27.640Z,99973.27
2019-05-03T09:54:39.641Z,99980.45
2019-05-03T09:55:44.857Z,99977.45
2019-05-03T09:56:59.215Z,99982.28
2019-05-03T09:58:05.523Z,99979.55
2019-05-03T09:59:11.186Z,99974.19
2019-05-03T10:00:17.832Z,99976.84
2019-05-03T10:01:22.358Z,99974.61
2019-05-03T10:02:26.785Z,99980.20
2019-05-03T10:03:31.224Z,99978.06
2019-05-03T10:04:36.584Z,99974.06
2019-05-03T10:05:41.342Z,99983.23
2019-05-03T10:06:45.794Z,99982.22
2019-05-03T10:07:50.223Z,99988.56
2019-05-03T10:08:54.663Z,99989.75
2019-05-03T10:09:59.168Z,99981.17
2019-05-03T10:11:15.118Z,99987.78
2019-05-03T10:12:20.918Z,99989.25
2019-05-03T10:13:27.109Z,99989.56
2019-05-03T10:14:31.487Z,99992.41
2019-05-03T10:15:40.777Z,99982.48
2019-05-03T10:17:05.419Z,99982.82
2019-05-03T10:18:12.541Z,99980.80
2019-05-03T10:19:16.970Z,99984.72
2019-05-03T10:20:25.025Z,99985.70
2019-05-03T10:21:30.532Z,99979.64
2019-05-03T10:22:35.319Z,99983.94
2019-05-03T10:23:39.824Z,99994.42
2019-05-03T10:24:45.228Z,99990.42
2019-05-03T10:25:49.739Z,99989.77
2019-05-03T10:26:55.208Z,99995.75
2019-05-03T10:27:59.987Z,99996.86
2019-05-03T10:29:05.495Z,99990.84
2019-05-03T10:30:13.250Z,99991.63
2019-05-03T10:31:16.227Z,99986.80
2019-05-03T10:32:32.482Z,99980.82
2019-05-03T10:33:56.704Z,99984.75
2019-05-03T10:35:02.789Z,99980.52
2019-05-03T10:36:07.217Z,99974.47
2019-05-03T10:37:15.149Z,99966.09
2019-05-03T10:38:19.896Z,99974.80
2019-05-03T10:39:26.287Z,99973.76
2019-05-03T10:40:30.791Z,99977.57
2019-05-03T10:41:35.225Z,99979.02
2019-05-03T10:42:40.100Z,99977.80
2019-05-03T10:43:45.227Z,99972.55
2019-05-03T10:44:49.841Z,99972.08
2019-05-03T10:45:55.804Z,99973.81
2019-05-03T10:47:01.471Z,99963.75
2019-05-03T10:48:05.972Z,99969.00
2019-05-03T10:49:10.688Z,99976.05
2019-05-03T10:50:15.668Z,99981.42
2019-05-03T10:51:20.232Z,99981.45
2019-05-03T10:52:28.732Z,99983.13
2019-05-03T10:53:35.255Z,99981.81
2019-05-03T10:54:39.756Z,99986.62
2019-05-03T10:55:45.825Z,99981.84
2019-05-03T10:56:51.922Z,99983.19
2019-05-03T10:58:07.247Z,99983.75
2019-05-03T10:59:12.265Z,99983.64
2019-05-03T11:00:44.264Z,99990.80
2019-05-03T11:01:27.522Z,99983.17
2019-05-03T11:02:35.263Z,99985.97
2019-05-03T11:03:39.744Z,99981.45
2019-05-03T11:04:46.126Z,99983.36
2019-05-03T11:05:50.312Z,99982.08
2019-05-03T11:06:55.065Z,99976.52
2019-05-03T11:07:59.963Z,99980.67
2019-05-03T11:09:05.965Z,99980.64
2019-05-03T11:10:11.757Z,99985.28
2019-05-03T11:11:16.215Z,99985.77
2019-05-03T11:12:20.662Z,99979.48
2019-05-03T11:13:26.447Z,99986.55
2019-05-03T11:14:31.387Z,99987.38
2019-05-03T11:15:35.818Z,99984.42
2019-05-03T11:16:40.251Z,99986.59
2019-05-03T11:17:45.501Z,99975.93
2019-05-03T11:18:50.984Z,99978.98
2019-05-03T11:19:55.431Z,99980.95
2019-05-03T11:20:59.847Z,99987.37
2019-05-03T11:22:05.512Z,99980.66
2019-05-03T11:23:10.173Z,99977.48
2019-05-03T11:24:14.922Z,99972.67
2019-05-03T11:25:19.692Z,99980.31
2019-05-03T11:26:25.245Z,99972.04
2019-05-03T11:27:31.793Z,99979.64
2019-05-03T11:28:37.216Z,99970.40
2019-05-03T11:29:41.650Z,99979.06
2019-05-03T11:30:53.175Z,99972.01
2019-05-03T11:32:09.253Z,99977.98
2019-05-03T11:33:15.278Z,99970.34
2019-05-03T11:34:22.707Z,99967.51
2019-05-03T11:35:35.092Z,99966.80
2019-05-03T11:36:47.220Z,99967.41
2019-05-03T11:37:59.490Z,99968.86
2019-05-03T11:39:05.160Z,99955.79
2019-05-03T11:40:10.498Z,99954.44
2019-05-03T11:41:19.200Z,99964.47
2019-05-03T11:42:22.025Z,99955.03
2019-05-03T11:43:26.479Z,99953.13
2019-05-03T11:44:40.124Z,99952.06
2019-05-03T11:45:44.965Z,99951.27
2019-05-03T11:46:49.463Z,99950.44
2019-05-03T11:47:55.070Z,99940.61
2019-05-03T11:48:59.643Z,99946.56
2019-05-03T11:50:06.304Z,99952.23
2019-05-03T11:51:10.736Z,99945.95
2019-05-03T11:52:16.055Z,99952.62
2019-05-03T11:53:21.316Z,99947.61
2019-05-03T11:54:26.030Z,99946.84
2019-05-03T11:55:30.477Z,99948.72
2019-05-03T11:56:35.948Z,99944.34
2019-05-03T11:57:40.422Z,99950.03
2019-05-03T11:58:45.662Z,99947.39
2019-05-03T11:59:51.323Z,99946.52
2019-05-03T12:01:15.950Z,99945.27
2019-05-03T12:02:17.399Z,99941.09
2019-05-03T12:03:44.871Z,99949.33
2019-05-03T12:04:48.672Z,99937.64
2019-05-03T12:05:55.187Z,99942.20
2019-05-03T12:06:59.805Z,99950.00
2019-05-03T12:08:05.406Z,99943.92
2019-05-03T12:09:10.047Z,99945.66
2019-05-03T12:10:30.877Z,99941.88
2019-05-03T12:11:21.451Z,99951.03
2019-05-03T12:12:29.489Z,99944.79
2019-05-03T12:13:34.040Z,99954.53
2019-05-03T12:14:38.467Z,99949.80
2019-05-03T12:15:44.533Z,99953.51
2019-05-03T12:17:18.058Z,99954.95
2019-05-03T12:18:01.688Z,99953.11
2019-05-03T12:19:16.602Z,99964.20
2019-05-03T12:20:17.225Z,99959.80
2019-05-03T12:21:21.190Z,99966.09
2019-05-03T12:22:26.651Z,99965.44
2019-05-03T12:23:32.401Z,99970.50
2019-05-03T12:24:37.894Z,99963.42
2019-05-03T12:25:45.651Z,99964.81
2019-05-03T12:26:48.787Z,99977.69
2019-05-03T12:27:53.223Z,99968.59
2019-05-03T12:28:57.680Z,99970.45
2019-05-03T12:30:02.197Z,99967.48
2019-05-03T12:31:07.407Z,99968.47
2019-05-03T12:32:14.326Z,99970.06
2019-05-03T12:33:18.714Z,99970.63
2019-05-03T12:34:25.465Z,99966.12
2019-05-03T12:35:29.613Z,99970.15
2019-05-03T12:36:38.838Z,99971.83
2019-05-03T12:37:41.261Z,99973.55
2019-05-03T12:38:45.981Z,99972.88
2019-05-03T12:39:50.440Z,99965.58
2019-05-03T12:40:55.845Z,99972.58
2019-05-03T12:42:00.288Z,99971.53
2019-05-03T12:43:06.068Z,99964.64
2019-05-03T12:44:10.695Z,99977.94
2019-05-03T12:45:15.409Z,99979.50
2019-05-03T12:46:19.876Z,99966.64
2019-05-03T12:47:25.302Z,99968.77
2019-05-03T12:48:30.685Z,99973.47
2019-05-03T12:49:35.870Z,99975.26
2019-05-03T12:50:41.011Z,99979.52
2019-05-03T12:51:45.670Z,99969.06
2019-05-03T12:52:50.774Z,99970.34
2019-05-03T12:53:55.317Z,99964.08
2019-05-03T12:54:59.781Z,99967.05
2019-05-03T12:56:11.389Z,99972.11
2019-05-03T12:57:10.991Z,99960.77
2019-05-03T12:58:15.702Z,99961.17
2019-05-03T12:59:21.779Z,99958.22
2019-05-03T13:00:30.701Z,99958.70
2019-05-03T13:01:45.533Z,99956.13
2019-05-03T13:02:55.062Z,99962.98
2019-05-03T13:04:01.357Z,99954.80